createdAt,value
2022-08-11T00:16:44.425Z,29.1
2022-08-11T00:26:49.153Z,28.8
2022-08-11T00:36:49.786Z,28.7
2022-08-11T00:46:59.243Z,28.7
2022-08-11T00:57:36.599Z,28.7
2022-08-11T01:07:14.894Z,28.4
2022-08-11T01:17:11.569Z,28.2
2022-08-11T01:27:18.682Z,28.3
2022-08-11T01:37:20.801Z,28.3
2022-08-11T01:47:23.315Z,28.3
2022-08-11T01:57:29.779Z,28.2
2022-08-11T02:07:41.385Z,28.2
2022-08-11T02:17:37.759Z,28.2
2022-08-11T02:27:44.193Z,28
2022-08-11T02:57:57.919Z,27.5
2022-08-11T03:08:03.391Z,27.4
2022-08-11T03:18:04.569Z,27.4
2022-08-11T03:28:08.387Z,27.1
2022-08-11T03:38:11.697Z,26.6
2022-08-11T03:48:21.229Z,26.9
2022-08-11T03:58:31.024Z,26.9
2022-08-11T04:08:47.787Z,26.7
2022-08-11T04:18:49.873Z,26.7
2022-08-11T04:29:00.677Z,26.5
2022-08-11T04:38:59.368Z,26.5
2022-08-11T04:49:08.730Z,26.4
2022-08-11T04:59:17.253Z,26.2
2022-08-11T05:09:27.057Z,26.1
2022-08-11T05:19:29.644Z,26
2022-08-11T05:29:37.680Z,25.9
2022-08-11T05:39:37.916Z,25.7
2022-08-11T05:49:38.406Z,26
2022-08-11T05:59:47.289Z,26.3
2022-08-11T06:09:48.198Z,26.4
2022-08-11T06:19:49.137Z,26.2
2022-08-11T06:29:54.640Z,26.5
2022-08-11T06:49:57.415Z,26.9
2022-08-11T07:00:02.663Z,27
2022-08-11T07:10:05.301Z,27.4
2022-08-11T07:20:08.507Z,29.1
2022-08-11T07:30:18.939Z,30.9
2022-08-11T07:40:26.722Z,31.7
2022-08-11T07:50:27.374Z,32.7
2022-08-11T08:00:30.513Z,33.3
2022-08-11T08:10:29.988Z,33.8
2022-08-11T08:20:34.895Z,33.6
2022-08-11T08:30:47.528Z,34.3
2022-08-11T08:40:56.384Z,34.4
2022-08-11T08:50:49.245Z,34.9
2022-08-11T09:00:49.205Z,35
2022-08-11T09:11:06.139Z,35.3
2022-08-11T09:21:08.767Z,34.6
2022-08-11T09:31:10.500Z,34.7
2022-08-11T09:41:55.816Z,34.4
2022-08-11T10:51:57.641Z,34.5
2022-08-11T11:01:56.116Z,33.8
2022-08-11T11:11:54.838Z,34.4
2022-08-11T11:42:32.525Z,35.2
2022-08-11T12:32:45.846Z,34.8
2022-08-11T12:52:43.472Z,34.4
2022-08-11T13:02:44.621Z,34.2
2022-08-11T13:12:49.052Z,34.1
2022-08-11T13:22:57.429Z,34.2
2022-08-11T13:33:00.704Z,34.7
2022-08-11T13:43:06.694Z,34.5
2022-08-11T13:53:08.241Z,34.4
2022-08-11T14:03:10.933Z,34.4
2022-08-11T14:13:17.159Z,34.8
2022-08-11T14:23:20.008Z,34.6
2022-08-11T14:33:23.561Z,34.3
2022-08-11T14:44:10.534Z,34.6
2022-08-11T14:53:30.025Z,34.4
2022-08-11T15:03:36.351Z,34.4
2022-08-11T15:13:44.100Z,34.3
2022-08-11T15:23:48.223Z,34.2
2022-08-11T15:33:53.576Z,34.1
2022-08-11T15:43:54.084Z,34.4
2022-08-11T15:53:56.989Z,33.9
2022-08-11T16:04:07.019Z,34.4
2022-08-11T16:14:11.059Z,33.8
2022-08-11T16:25:57.871Z,34.1
2022-08-11T16:37:37.841Z,34.2
2022-08-11T16:44:32.950Z,33.9
2022-08-11T16:54:52.645Z,33.4
2022-08-11T17:04:32.380Z,33.3
2022-08-11T17:14:36.498Z,33.3
2022-08-11T17:24:37.833Z,33.4
2022-08-11T17:34:41.909Z,33.1
2022-08-11T17:44:46.053Z,32.8
2022-08-11T17:54:55.561Z,32.8
2022-08-11T18:04:56.743Z,32.8
2022-08-11T18:15:05.440Z,32.8
2022-08-11T18:25:15.950Z,32.8
2022-08-11T18:35:26.215Z,32.7
2022-08-11T18:45:45.522Z,33.1
2022-08-11T19:46:31.072Z,31.9
2022-08-11T19:56:18.037Z,31.9
2022-08-11T20:06:10.645Z,31.5
2022-08-11T20:26:30.018Z,31.6
2022-08-11T20:36:14.836Z,31.5
2022-08-11T20:46:16.418Z,31.5
2022-08-11T20:56:18.107Z,31.4
2022-08-11T21:06:26.196Z,31.3
2022-08-11T21:16:47.355Z,31
2022-08-11T21:26:30.849Z,31
2022-08-11T21:36:38.850Z,30.7
2022-08-11T21:46:55.893Z,30.7
2022-08-11T21:57:01.962Z,30.6
2022-08-11T22:07:09.812Z,30.2
2022-08-11T22:17:11.481Z,30
2022-08-11T22:27:13.591Z,30
2022-08-11T22:37:10.976Z,29.8
2022-08-11T22:47:30.238Z,29.5
2022-08-11T22:57:31.712Z,29.5
2022-08-11T23:07:49.527Z,29.4
2022-08-11T23:17:59.193Z,29.2
2022-08-11T23:27:53.885Z,29.3
2022-08-11T23:37:56.025Z,29.1
2022-08-11T23:48:01.189Z,28.8
2022-08-11T23:58:06.968Z,28.5
